sensor_id;sensor_type;location;lat;lon;timestamp;pressure;altitude;pressure_sealevel;temperature;humidity
50732;BME280;36700;50.488;2.544;2023-06-24T00:02:03;102123.47;;;22.20;54.40
50732;BME280;36700;50.488;2.544;2023-06-24T00:04:29;102129.81;;;22.21;54.51
50732;BME280;36700;50.488;2.544;2023-06-24T00:06:54;102119.09;;;22.19;54.09
50732;BME280;36700;50.488;2.544;2023-06-24T00:09:22;102118.50;;;22.17;54.36
50732;BME280;36700;50.488;2.544;2023-06-24T00:11:48;102116.00;;;22.15;54.31
50732;BME280;36700;50.488;2.544;2023-06-24T00:14:13;102116.25;;;22.14;54.43
50732;BME280;36700;50.488;2.544;2023-06-24T00:16:40;102115.44;;;22.13;54.44
50732;BME280;36700;50.488;2.544;2023-06-24T00:19:07;102114.81;;;22.11;54.60
50732;BME280;36700;50.488;2.544;2023-06-24T00:21:34;102110.44;;;22.10;54.73
50732;BME280;36700;50.488;2.544;2023-06-24T00:24:03;102110.66;;;22.09;54.25
50732;BME280;36700;50.488;2.544;2023-06-24T00:26:30;102108.78;;;22.09;54.52
50732;BME280;36700;50.488;2.544;2023-06-24T00:28:58;102103.78;;;22.06;54.70
50732;BME280;36700;50.488;2.544;2023-06-24T00:31:24;102105.69;;;22.05;54.31
50732;BME280;36700;50.488;2.544;2023-06-24T00:33:50;102102.13;;;22.05;54.41
50732;BME280;36700;50.488;2.544;2023-06-24T00:36:17;102111.19;;;22.05;54.65
50732;BME280;36700;50.488;2.544;2023-06-24T00:38:43;102109.75;;;22.03;54.71
50732;BME280;36700;50.488;2.544;2023-06-24T00:41:10;102109.75;;;22.03;54.44
50732;BME280;36700;50.488;2.544;2023-06-24T00:43:36;102111.91;;;22.01;54.85
50732;BME280;36700;50.488;2.544;2023-06-24T00:46:03;102108.34;;;22.00;54.86
50732;BME280;36700;50.488;2.544;2023-06-24T00:48:29;102108.56;;;21.99;54.57
50732;BME280;36700;50.488;2.544;2023-06-24T00:50:57;102111.53;;;21.97;54.39
50732;BME280;36700;50.488;2.544;2023-06-24T00:53:24;102105.25;;;21.97;54.39
50732;BME280;36700;50.488;2.544;2023-06-24T00:55:51;102109.06;;;21.96;54.90
50732;BME280;36700;50.488;2.544;2023-06-24T00:58:19;102109.06;;;21.96;54.94
50732;BME280;36700;50.488;2.544;2023-06-24T01:00:47;102099.44;;;21.93;54.97
50732;BME280;36700;50.488;2.544;2023-06-24T01:03:14;102104.91;;;21.93;54.91
50732;BME280;36700;50.488;2.544;2023-06-24T01:05:41;102101.56;;;21.91;54.80
50732;BME280;36700;50.488;2.544;2023-06-24T01:08:07;102105.38;;;21.90;54.87
50732;BME280;36700;50.488;2.544;2023-06-24T01:10:33;102101.22;;;21.87;54.84
50732;BME280;36700;50.488;2.544;2023-06-24T01:12:59;102102.06;;;21.88;54.87
50732;BME280;36700;50.488;2.544;2023-06-24T01:15:25;102096.84;;;21.86;54.71
50732;BME280;36700;50.488;2.544;2023-06-24T01:20:52;102108.03;;;21.85;54.59
50732;BME280;36700;50.488;2.544;2023-06-24T01:23:43;102100.06;;;21.83;54.53
50732;BME280;36700;50.488;2.544;2023-06-24T01:32:31;102090.69;;;21.79;55.08
50732;BME280;36700;50.488;2.544;2023-06-24T01:35:12;102082.69;;;21.77;55.08
50732;BME280;36700;50.488;2.544;2023-06-24T01:37:45;102088.41;;;21.76;54.99
50732;BME280;36700;50.488;2.544;2023-06-24T01:40:26;102093.06;;;21.75;55.06
50732;BME280;36700;50.488;2.544;2023-06-24T01:42:53;102083.19;;;21.74;54.78
50732;BME280;36700;50.488;2.544;2023-06-24T01:45:23;102093.31;;;21.74;54.70
50732;BME280;36700;50.488;2.544;2023-06-24T01:48:00;102099.03;;;21.72;54.90
50732;BME280;36700;50.488;2.544;2023-06-24T01:50:31;102100.94;;;21.72;55.06
50732;BME280;36700;50.488;2.544;2023-06-24T01:53:01;102109.16;;;21.72;54.99
50732;BME280;36700;50.488;2.544;2023-06-24T01:55:31;102104.97;;;21.69;54.70
50732;BME280;36700;50.488;2.544;2023-06-24T01:57:59;102108.78;;;21.68;55.23
50732;BME280;36700;50.488;2.544;2023-06-24T02:00:29;102104.38;;;21.67;54.68
50732;BME280;36700;50.488;2.544;2023-06-24T02:02:55;102100.81;;;21.66;54.89
50732;BME280;36700;50.488;2.544;2023-06-24T02:05:22;102097.22;;;21.66;54.66
50732;BME280;36700;50.488;2.544;2023-06-24T02:07:51;102106.50;;;21.65;55.32
50732;BME280;36700;50.488;2.544;2023-06-24T02:10:18;102109.50;;;21.63;54.98
50732;BME280;36700;50.488;2.544;2023-06-24T02:12:48;102107.84;;;21.62;55.18
50732;BME280;36700;50.488;2.544;2023-06-24T02:15:16;102104.50;;;21.60;55.24
50732;BME280;36700;50.488;2.544;2023-06-24T02:17:44;102107.25;;;21.60;55.06
50732;BME280;36700;50.488;2.544;2023-06-24T02:20:14;102111.88;;;21.60;55.34
50732;BME280;36700;50.488;2.544;2023-06-24T02:22:43;102102.25;;;21.57;54.87
50732;BME280;36700;50.488;2.544;2023-06-24T02:25:10;102104.97;;;21.57;54.99
50732;BME280;36700;50.488;2.544;2023-06-24T02:27:36;102102.50;;;21.56;54.89
50732;BME280;36700;50.488;2.544;2023-06-24T02:30:05;102102.75;;;21.54;55.55
50732;BME280;36700;50.488;2.544;2023-06-24T02:32:32;102108.22;;;21.54;54.85
50732;BME280;36700;50.488;2.544;2023-06-24T02:34:58;102107.38;;;21.53;55.29
50732;BME280;36700;50.488;2.544;2023-06-24T02:37:25;102108.44;;;21.52;55.14
50732;BME280;36700;50.488;2.544;2023-06-24T02:39:51;102115.00;;;21.51;55.41
50732;BME280;36700;50.488;2.544;2023-06-24T02:42:17;102116.09;;;21.50;54.99
50732;BME280;36700;50.488;2.544;2023-06-24T02:44:43;102113.56;;;21.49;55.29
50732;BME280;36700;50.488;2.544;2023-06-24T02:47:11;102116.53;;;21.47;55.11
50732;BME280;36700;50.488;2.544;2023-06-24T02:49:39;102117.63;;;21.46;55.21
50732;BME280;36700;50.488;2.544;2023-06-24T02:52:05;102110.50;;;21.45;55.10
50732;BME280;36700;50.488;2.544;2023-06-24T02:54:33;102110.50;;;21.45;55.34
50732;BME280;36700;50.488;2.544;2023-06-24T02:56:59;102101.94;;;21.42;55.21
50732;BME280;36700;50.488;2.544;2023-06-24T02:59:25;102100.84;;;21.43;55.53
50732;BME280;36700;50.488;2.544;2023-06-24T03:01:52;102097.53;;;21.41;55.13
50732;BME280;36700;50.488;2.544;2023-06-24T03:04:19;102099.44;;;21.40;55.11
50732;BME280;36700;50.488;2.544;2023-06-24T03:06:46;102101.34;;;21.39;55.56
50732;BME280;36700;50.488;2.544;2023-06-24T03:09:14;102100.50;;;21.39;55.54
50732;BME280;36700;50.488;2.544;2023-06-24T03:11:44;102097.19;;;21.37;55.05
50732;BME280;36700;50.488;2.544;2023-06-24T03:14:11;102105.63;;;21.35;55.15
50732;BME280;36700;50.488;2.544;2023-06-24T03:16:37;102100.41;;;21.34;55.69
50732;BME280;36700;50.488;2.544;2023-06-24T03:19:07;102099.31;;;21.35;55.13
50732;BME280;36700;50.488;2.544;2023-06-24T03:21:32;102106.72;;;21.34;55.57
50732;BME280;36700;50.488;2.544;2023-06-24T03:23:59;102106.09;;;21.32;55.78
50732;BME280;36700;50.488;2.544;2023-06-24T03:26:35;102106.59;;;21.29;55.54
50732;BME280;36700;50.488;2.544;2023-06-24T03:29:01;102108.84;;;21.32;55.03
50732;BME280;36700;50.488;2.544;2023-06-24T03:31:27;102101.13;;;21.29;55.13
50732;BME280;36700;50.488;2.544;2023-06-24T03:33:54;102111.22;;;21.29;55.24
50732;BME280;36700;50.488;2.544;2023-06-24T03:36:19;102105.75;;;21.29;54.99
50732;BME280;36700;50.488;2.544;2023-06-24T03:38:46;102104.09;;;21.28;55.26
50732;BME280;36700;50.488;2.544;2023-06-24T03:41:12;102107.91;;;21.27;55.14
50732;BME280;36700;50.488;2.544;2023-06-24T03:43:38;102115.28;;;21.26;55.22
50732;BME280;36700;50.488;2.544;2023-06-24T03:46:03;102106.47;;;21.24;55.46
50732;BME280;36700;50.488;2.544;2023-06-24T03:48:29;102106.47;;;21.24;55.47
50732;BME280;36700;50.488;2.544;2023-06-24T03:50:55;102104.81;;;21.23;55.33
50732;BME280;36700;50.488;2.544;2023-06-24T03:53:21;102107.56;;;21.23;55.58
50732;BME280;36700;50.488;2.544;2023-06-24T03:55:47;102111.38;;;21.22;55.61
50732;BME280;36700;50.488;2.544;2023-06-24T03:58:13;102107.78;;;21.21;55.73
50732;BME280;36700;50.488;2.544;2023-06-24T04:00:42;102108.03;;;21.20;55.08
50732;BME280;36700;50.488;2.544;2023-06-24T04:03:10;102100.06;;;21.18;55.44
50732;BME280;36700;50.488;2.544;2023-06-24T04:05:36;102111.03;;;21.18;55.12
50732;BME280;36700;50.488;2.544;2023-06-24T04:08:02;102103.84;;;21.17;55.39
50732;BME280;36700;50.488;2.544;2023-06-24T04:10:31;102100.31;;;21.17;55.70
50732;BME280;36700;50.488;2.544;2023-06-24T04:12:58;102103.03;;;21.17;55.65
50732;BME280;36700;50.488;2.544;2023-06-24T04:15:23;102108.75;;;21.15;55.12
50732;BME280;36700;50.488;2.544;2023-06-24T04:17:49;102097.44;;;21.11;55.30
50732;BME280;36700;50.488;2.544;2023-06-24T04:20:15;102111.13;;;21.11;55.58
50732;BME280;36700;50.488;2.544;2023-06-24T04:22:41;102119.34;;;21.11;55.16
50732;BME280;36700;50.488;2.544;2023-06-24T04:25:08;102117.69;;;21.10;55.44
50732;BME280;36700;50.488;2.544;2023-06-24T04:27:34;102118.75;;;21.09;55.50
50732;BME280;36700;50.488;2.544;2023-06-24T04:30:02;102115.16;;;21.09;55.71
50732;BME280;36700;50.488;2.544;2023-06-24T04:32:29;102117.06;;;21.08;55.56
50732;BME280;36700;50.488;2.544;2023-06-24T04:34:55;102121.72;;;21.08;55.51
50732;BME280;36700;50.488;2.544;2023-06-24T04:37:21;102123.59;;;21.07;55.99
50732;BME280;36700;50.488;2.544;2023-06-24T04:39:47;102113.75;;;21.06;55.33
50732;BME280;36700;50.488;2.544;2023-06-24T04:42:14;102121.94;;;21.06;55.99
50732;BME280;36700;50.488;2.544;2023-06-24T04:44:40;102121.94;;;21.06;55.80
50732;BME280;36700;50.488;2.544;2023-06-24T04:47:06;102118.84;;;21.03;56.00
50732;BME280;36700;50.488;2.544;2023-06-24T04:49:32;102123.25;;;21.04;55.34
50732;BME280;36700;50.488;2.544;2023-06-24T04:52:02;102126.84;;;21.04;55.65
50732;BME280;36700;50.488;2.544;2023-06-24T04:54:28;102127.06;;;21.03;55.24
50732;BME280;36700;50.488;2.544;2023-06-24T04:56:54;102117.78;;;21.04;55.27
50732;BME280;36700;50.488;2.544;2023-06-24T04:59:21;102116.13;;;21.03;55.48
50732;BME280;36700;50.488;2.544;2023-06-24T05:01:47;102118.00;;;21.02;55.58
50732;BME280;36700;50.488;2.544;2023-06-24T05:04:13;102128.13;;;21.02;55.70
50732;BME280;36700;50.488;2.544;2023-06-24T05:06:39;102125.41;;;21.02;55.40
50732;BME280;36700;50.488;2.544;2023-06-24T05:09:05;102119.94;;;21.02;55.50
50732;BME280;36700;50.488;2.544;2023-06-24T05:11:31;102119.09;;;21.01;55.50
50732;BME280;36700;50.488;2.544;2023-06-24T05:13:57;102119.31;;;20.99;55.47
50732;BME280;36700;50.488;2.544;2023-06-24T05:16:23;102131.94;;;21.01;55.87
50732;BME280;36700;50.488;2.544;2023-06-24T05:18:50;102122.91;;;21.00;55.74
50732;BME280;36700;50.488;2.544;2023-06-24T05:21:16;102134.91;;;20.99;55.37
50732;BME280;36700;50.488;2.544;2023-06-24T05:23:42;102131.59;;;20.97;55.70
50732;BME280;36700;50.488;2.544;2023-06-24T05:26:08;102139.53;;;20.98;55.94
50732;BME280;36700;50.488;2.544;2023-06-24T05:28:34;102139.53;;;20.98;55.74
50732;BME280;36700;50.488;2.544;2023-06-24T05:31:00;102133.47;;;20.96;55.65
50732;BME280;36700;50.488;2.544;2023-06-24T05:33:25;102135.38;;;20.96;55.83
50732;BME280;36700;50.488;2.544;2023-06-24T05:35:51;102131.59;;;20.97;55.43
50732;BME280;36700;50.488;2.544;2023-06-24T05:38:17;102127.16;;;20.96;56.05
50732;BME280;36700;50.488;2.544;2023-06-24T05:40:43;102137.06;;;20.97;55.99
50732;BME280;36700;50.488;2.544;2023-06-24T05:43:09;102131.59;;;20.97;55.88
50732;BME280;36700;50.488;2.544;2023-06-24T05:45:36;102135.13;;;20.97;55.83
50732;BME280;36700;50.488;2.544;2023-06-24T05:48:03;102140.59;;;20.97;55.63
50732;BME280;36700;50.488;2.544;2023-06-24T05:50:29;102137.06;;;20.97;55.51
50732;BME280;36700;50.488;2.544;2023-06-24T05:52:55;102142.53;;;20.97;55.52
50732;BME280;36700;50.488;2.544;2023-06-24T05:55:20;102145.25;;;20.97;55.85
50732;BME280;36700;50.488;2.544;2023-06-24T05:57:46;102141.69;;;20.96;56.17
50732;BME280;36700;50.488;2.544;2023-06-24T06:00:13;102150.97;;;20.95;56.13
50732;BME280;36700;50.488;2.544;2023-06-24T06:02:39;102145.50;;;20.95;56.32
50732;BME280;36700;50.488;2.544;2023-06-24T06:05:05;102140.84;;;20.96;55.86
50732;BME280;36700;50.488;2.544;2023-06-24T06:07:31;102142.53;;;20.97;56.04
50732;BME280;36700;50.488;2.544;2023-06-24T06:09:56;102150.72;;;20.97;55.81
50732;BME280;36700;50.488;2.544;2023-06-24T06:12:23;102143.34;;;20.97;56.24
50732;BME280;36700;50.488;2.544;2023-06-24T06:14:49;102139.78;;;20.97;56.26
50732;BME280;36700;50.488;2.544;2023-06-24T06:17:15;102142.28;;;20.98;56.02
50732;BME280;36700;50.488;2.544;2023-06-24T06:19:41;102141.19;;;20.99;55.84
50732;BME280;36700;50.488;2.544;2023-06-24T06:22:07;102144.53;;;21.02;56.31
50732;BME280;36700;50.488;2.544;2023-06-24T06:24:33;102142.63;;;21.02;56.25
50732;BME280;36700;50.488;2.544;2023-06-24T06:26:59;102142.16;;;21.05;56.25
50732;BME280;36700;50.488;2.544;2023-06-24T06:29:25;102147.75;;;21.10;56.15
50732;BME280;36700;50.488;2.544;2023-06-24T06:31:51;102145.84;;;21.23;55.40
50732;BME280;36700;50.488;2.544;2023-06-24T06:34:19;102152.63;;;21.32;55.04
50732;BME280;36700;50.488;2.544;2023-06-24T06:36:45;102141.06;;;21.42;55.27
50732;BME280;36700;50.488;2.544;2023-06-24T06:39:11;102145.94;;;21.52;54.84
50732;BME280;36700;50.488;2.544;2023-06-24T06:41:37;102151.16;;;21.53;54.86
50732;BME280;36700;50.488;2.544;2023-06-24T06:44:04;102155.44;;;21.61;54.86
50732;BME280;36700;50.488;2.544;2023-06-24T06:46:30;102152.81;;;21.66;54.95
50732;BME280;36700;50.488;2.544;2023-06-24T06:48:56;102148.41;;;21.77;54.74
50732;BME280;36700;50.488;2.544;2023-06-24T06:51:23;102149.09;;;21.85;54.35
50732;BME280;36700;50.488;2.544;2023-06-24T06:53:51;102153.25;;;21.87;54.44
50732;BME280;36700;50.488;2.544;2023-06-24T06:56:23;102147.53;;;22.01;54.31
50732;BME280;36700;50.488;2.544;2023-06-24T06:58:50;102145.59;;;22.01;53.96
50732;BME280;36700;50.488;2.544;2023-06-24T07:01:17;102136.06;;;22.04;53.98
50732;BME280;36700;50.488;2.544;2023-06-24T07:03:43;102151.41;;;22.05;54.18
50732;BME280;36700;50.488;2.544;2023-06-24T07:06:10;102146.28;;;22.09;53.89
50732;BME280;36700;50.488;2.544;2023-06-24T07:08:37;102150.44;;;22.11;54.07
50732;BME280;36700;50.488;2.544;2023-06-24T07:11:03;102149.97;;;22.14;53.94
50732;BME280;36700;50.488;2.544;2023-06-24T07:13:29;102150.88;;;22.20;53.56
50732;BME280;36700;50.488;2.544;2023-06-24T07:15:55;102157.88;;;22.28;53.63
50732;BME280;36700;50.488;2.544;2023-06-24T07:18:21;102159.06;;;22.32;53.54
50732;BME280;36700;50.488;2.544;2023-06-24T07:20:47;102157.81;;;22.40;53.54
50732;BME280;36700;50.488;2.544;2023-06-24T07:23:14;102163.38;;;22.57;52.50
50732;BME280;36700;50.488;2.544;2023-06-24T07:25:41;102155.22;;;23.13;51.43
50732;BME280;36700;50.488;2.544;2023-06-24T07:28:07;102155.25;;;24.53;48.00
50732;BME280;36700;50.488;2.544;2023-06-24T07:30:33;102153.25;;;27.14;42.15
50732;BME280;36700;50.488;2.544;2023-06-24T07:32:59;102149.06;;;28.43;39.53
50732;BME280;36700;50.488;2.544;2023-06-24T07:35:24;102150.72;;;29.09;37.78
50732;BME280;36700;50.488;2.544;2023-06-24T07:37:50;102149.16;;;29.70;36.49
50732;BME280;36700;50.488;2.544;2023-06-24T07:40:16;102151.66;;;29.72;36.43
50732;BME280;36700;50.488;2.544;2023-06-24T07:42:42;102154.56;;;27.37;40.62
50732;BME280;36700;50.488;2.544;2023-06-24T07:45:08;102165.03;;;25.47;44.73
50732;BME280;36700;50.488;2.544;2023-06-24T07:47:34;102156.25;;;24.41;47.51
50732;BME280;36700;50.488;2.544;2023-06-24T07:50:00;102163.09;;;23.66;49.27
50732;BME280;36700;50.488;2.544;2023-06-24T07:52:26;102162.47;;;23.20;50.99
50732;BME280;36700;50.488;2.544;2023-06-24T07:54:52;102158.16;;;22.90;51.87
50732;BME280;36700;50.488;2.544;2023-06-24T07:57:18;102162.47;;;22.68;52.18
50732;BME280;36700;50.488;2.544;2023-06-24T07:59:45;102161.34;;;22.52;52.69
50732;BME280;36700;50.488;2.544;2023-06-24T08:02:11;102158.91;;;22.39;53.51
50732;BME280;36700;50.488;2.544;2023-06-24T08:04:37;102160.38;;;22.29;53.60
50732;BME280;36700;50.488;2.544;2023-06-24T08:07:03;102161.38;;;22.23;54.17
50732;BME280;36700;50.488;2.544;2023-06-24T08:09:30;102160.41;;;22.17;53.78
50732;BME280;36700;50.488;2.544;2023-06-24T08:11:55;102167.97;;;22.10;54.52
50732;BME280;36700;50.488;2.544;2023-06-24T08:14:21;102168.34;;;22.02;54.27
50732;BME280;36700;50.488;2.544;2023-06-24T08:16:47;102165.50;;;21.97;54.89
50732;BME280;36700;50.488;2.544;2023-06-24T08:19:13;102157.75;;;21.93;54.95
50732;BME280;36700;50.488;2.544;2023-06-24T08:21:39;102153.38;;;21.92;54.72
50732;BME280;36700;50.488;2.544;2023-06-24T08:24:06;102161.25;;;21.89;55.19
50732;BME280;36700;50.488;2.544;2023-06-24T08:26:32;102156.25;;;21.86;54.84
50732;BME280;36700;50.488;2.544;2023-06-24T08:28:58;102154.56;;;21.85;55.20
50732;BME280;36700;50.488;2.544;2023-06-24T08:31:25;102148.19;;;21.79;55.03
50732;BME280;36700;50.488;2.544;2023-06-24T08:33:52;102151.16;;;21.77;55.61
50732;BME280;36700;50.488;2.544;2023-06-24T08:36:19;102152.22;;;21.76;55.62
50732;BME280;36700;50.488;2.544;2023-06-24T08:38:46;102145.56;;;21.72;55.61
50732;BME280;36700;50.488;2.544;2023-06-24T08:41:12;102151.66;;;21.74;55.34
50732;BME280;36700;50.488;2.544;2023-06-24T08:43:37;102145.31;;;21.74;55.39
50732;BME280;36700;50.488;2.544;2023-06-24T08:46:04;102140.94;;;21.73;55.52
50732;BME280;36700;50.488;2.544;2023-06-24T08:48:30;102144.50;;;21.73;55.27
50732;BME280;36700;50.488;2.544;2023-06-24T08:50:58;102142.00;;;21.72;55.74
50732;BME280;36700;50.488;2.544;2023-06-24T08:53:28;102146.03;;;21.69;55.94
50732;BME280;36700;50.488;2.544;2023-06-24T08:55:57;102144.13;;;21.70;55.96
50732;BME280;36700;50.488;2.544;2023-06-24T08:58:23;102138.06;;;21.68;55.63
50732;BME280;36700;50.488;2.544;2023-06-24T09:01:01;102141.16;;;21.71;56.02
50732;BME280;36700;50.488;2.544;2023-06-24T09:03:28;102131.06;;;21.72;55.71
50732;BME280;36700;50.488;2.544;2023-06-24T09:06:08;102136.53;;;21.72;55.88
50732;BME280;36700;50.488;2.544;2023-06-24T09:08:34;102132.47;;;21.74;55.76
50732;BME280;36700;50.488;2.544;2023-06-24T09:11:02;102125.94;;;21.75;55.73
50732;BME280;36700;50.488;2.544;2023-06-24T09:13:35;102128.44;;;21.77;56.04
50732;BME280;36700;50.488;2.544;2023-06-24T09:16:12;102129.84;;;21.79;56.22
50732;BME280;36700;50.488;2.544;2023-06-24T09:18:39;102125.19;;;21.80;56.01
50732;BME280;36700;50.488;2.544;2023-06-24T09:21:27;102130.19;;;21.83;56.30
50732;BME280;36700;50.488;2.544;2023-06-24T09:23:57;102125.53;;;21.84;57.02
50732;BME280;36700;50.488;2.544;2023-06-24T09:26:27;102122.78;;;21.84;56.61
50732;BME280;36700;50.488;2.544;2023-06-24T09:28:57;102128.28;;;21.84;56.66
50732;BME280;36700;50.488;2.544;2023-06-24T09:31:25;102122.69;;;21.78;57.03
50732;BME280;36700;50.488;2.544;2023-06-24T09:33:50;102117.47;;;21.77;57.22
50732;BME280;36700;50.488;2.544;2023-06-24T09:36:17;102114.75;;;21.77;57.16
50732;BME280;36700;50.488;2.544;2023-06-24T09:38:43;102108.53;;;21.82;57.23
50732;BME280;36700;50.488;2.544;2023-06-24T09:41:14;102109.94;;;21.84;56.58
50732;BME280;36700;50.488;2.544;2023-06-24T09:43:43;102108.03;;;21.85;56.76
50732;BME280;36700;50.488;2.544;2023-06-24T09:46:18;102096.84;;;21.86;56.65
50732;BME280;36700;50.488;2.544;2023-06-24T09:48:44;102109.44;;;21.87;56.49
50732;BME280;36700;50.488;2.544;2023-06-24T09:51:12;102110.06;;;21.89;56.15
50732;BME280;36700;50.488;2.544;2023-06-24T09:53:39;102108.75;;;21.92;56.54
50732;BME280;36700;50.488;2.544;2023-06-24T09:56:07;102104.06;;;21.92;56.16
50732;BME280;36700;50.488;2.544;2023-06-24T09:58:36;102107.66;;;21.93;55.58
50732;BME280;36700;50.488;2.544;2023-06-24T10:01:04;102100.03;;;21.95;55.84
50732;BME280;36700;50.488;2.544;2023-06-24T10:03:35;102101.69;;;21.96;55.99
50732;BME280;36700;50.488;2.544;2023-06-24T10:06:02;102107.75;;;21.98;56.22
50732;BME280;36700;50.488;2.544;2023-06-24T10:08:30;102102.28;;;21.98;56.19
50732;BME280;36700;50.488;2.544;2023-06-24T10:10:57;102094.88;;;21.99;56.09
50732;BME280;36700;50.488;2.544;2023-06-24T10:13:23;102087.50;;;21.99;55.90
50732;BME280;36700;50.488;2.544;2023-06-24T10:15:49;102091.06;;;22.00;55.25
50732;BME280;36700;50.488;2.544;2023-06-24T10:18:35;102080.09;;;22.00;55.70
50732;BME280;36700;50.488;2.544;2023-06-24T10:21:04;102078.78;;;22.02;55.67
50732;BME280;36700;50.488;2.544;2023-06-24T10:26:08;102067.25;;;22.00;56.46
50732;BME280;36700;50.488;2.544;2023-06-24T10:42:25;102062.31;;;21.85;56.57
50732;BME280;36700;50.488;2.544;2023-06-24T10:44:52;102064.22;;;21.85;56.65
50732;BME280;36700;50.488;2.544;2023-06-24T10:47:18;102052.44;;;21.84;56.66
50732;BME280;36700;50.488;2.544;2023-06-24T10:49:45;102056.28;;;21.83;56.61
50732;BME280;36700;50.488;2.544;2023-06-24T10:52:11;102052.69;;;21.83;56.91
50732;BME280;36700;50.488;2.544;2023-06-24T10:54:38;102054.00;;;21.80;56.97
50732;BME280;36700;50.488;2.544;2023-06-24T10:57:05;102048.53;;;21.80;56.88
50732;BME280;36700;50.488;2.544;2023-06-24T10:59:35;102045.78;;;21.80;56.84
50732;BME280;36700;50.488;2.544;2023-06-24T11:02:01;102046.03;;;21.78;56.89
50732;BME280;36700;50.488;2.544;2023-06-24T11:04:27;102038.66;;;21.79;56.86
50732;BME280;36700;50.488;2.544;2023-06-24T11:07:00;102040.81;;;21.77;56.57
50732;BME280;36700;50.488;2.544;2023-06-24T11:09:26;102034.25;;;21.78;56.87
50732;BME280;36700;50.488;2.544;2023-06-24T11:11:52;102024.41;;;21.77;56.61
50732;BME280;36700;50.488;2.544;2023-06-24T11:14:21;102031.53;;;21.78;56.65
50732;BME280;36700;50.488;2.544;2023-06-24T11:16:47;102031.53;;;21.78;57.15
50732;BME280;36700;50.488;2.544;2023-06-24T11:19:13;102031.75;;;21.76;56.94
50732;BME280;36700;50.488;2.544;2023-06-24T11:21:39;102027.13;;;21.77;57.00
50732;BME280;36700;50.488;2.544;2023-06-24T11:24:05;102022.72;;;21.76;56.75
50732;BME280;36700;50.488;2.544;2023-06-24T11:26:32;102018.06;;;21.76;56.76
50732;BME280;36700;50.488;2.544;2023-06-24T11:28:58;102023.56;;;21.76;56.69
50732;BME280;36700;50.488;2.544;2023-06-24T11:31:25;102020.81;;;21.76;57.11
50732;BME280;36700;50.488;2.544;2023-06-24T11:33:51;102022.72;;;21.76;56.77
50732;BME280;36700;50.488;2.544;2023-06-24T11:36:18;102010.09;;;21.75;56.83
50732;BME280;36700;50.488;2.544;2023-06-24T11:38:48;102013.69;;;21.75;56.65
50732;BME280;36700;50.488;2.544;2023-06-24T11:41:14;102009.28;;;21.74;56.83
50732;BME280;36700;50.488;2.544;2023-06-24T11:43:47;102002.72;;;21.75;56.70
50732;BME280;36700;50.488;2.544;2023-06-24T11:46:26;102008.19;;;21.75;57.15
50732;BME280;36700;50.488;2.544;2023-06-24T11:49:03;102002.72;;;21.75;57.26
50732;BME280;36700;50.488;2.544;2023-06-24T11:51:29;101993.69;;;21.75;56.72
50732;BME280;36700;50.488;2.544;2023-06-24T11:53:58;101999.16;;;21.75;57.11
50732;BME280;36700;50.488;2.544;2023-06-24T11:59:00;101988.19;;;21.75;57.21
50732;BME280;36700;50.488;2.544;2023-06-24T12:01:33;101991.19;;;21.73;56.96
50732;BME280;36700;50.488;2.544;2023-06-24T12:04:14;101989.03;;;21.75;56.76
50732;BME280;36700;50.488;2.544;2023-06-24T12:06:41;101992.84;;;21.74;57.12
50732;BME280;36700;50.488;2.544;2023-06-24T12:09:08;101989.84;;;21.76;57.20
50732;BME280;36700;50.488;2.544;2023-06-24T12:11:34;101980.81;;;21.75;56.85
50732;BME280;36700;50.488;2.544;2023-06-24T12:14:00;101987.53;;;21.85;55.42
50732;BME280;36700;50.488;2.544;2023-06-24T12:16:26;101990.03;;;21.86;55.85
50732;BME280;36700;50.488;2.544;2023-06-24T12:18:53;101982.69;;;21.87;55.58
50732;BME280;36700;50.488;2.544;2023-06-24T12:21:19;101974.69;;;21.85;55.76
50732;BME280;36700;50.488;2.544;2023-06-24T12:23:45;101967.81;;;21.83;55.80
50732;BME280;36700;50.488;2.544;2023-06-24T12:26:11;101974.38;;;21.82;55.89
50732;BME280;36700;50.488;2.544;2023-06-24T12:28:37;101960.91;;;21.80;55.85
50732;BME280;36700;50.488;2.544;2023-06-24T12:31:03;101969.38;;;21.78;56.13
50732;BME280;36700;50.488;2.544;2023-06-24T12:33:30;101964.97;;;21.77;56.34
50732;BME280;36700;50.488;2.544;2023-06-24T12:35:56;101966.06;;;21.76;56.72
50732;BME280;36700;50.488;2.544;2023-06-24T12:38:22;101962.47;;;21.76;56.36
50732;BME280;36700;50.488;2.544;2023-06-24T12:40:48;101957.28;;;21.74;56.45
50732;BME280;36700;50.488;2.544;2023-06-24T12:43:14;101942.75;;;21.74;56.53
50732;BME280;36700;50.488;2.544;2023-06-24T12:45:41;101956.44;;;21.74;56.52
50732;BME280;36700;50.488;2.544;2023-06-24T12:48:10;101953.94;;;21.72;56.54
50732;BME280;36700;50.488;2.544;2023-06-24T12:50:37;101950.16;;;21.73;56.84
50732;BME280;36700;50.488;2.544;2023-06-24T12:53:03;101951.19;;;21.72;56.24
50732;BME280;36700;50.488;2.544;2023-06-24T12:55:29;101946.81;;;21.71;56.62
50732;BME280;36700;50.488;2.544;2023-06-24T12:57:56;101947.41;;;21.73;56.18
50732;BME280;36700;50.488;2.544;2023-06-24T13:00:23;101945.72;;;21.72;56.36
50732;BME280;36700;50.488;2.544;2023-06-24T13:02:50;101946.56;;;21.73;56.19
50732;BME280;36700;50.488;2.544;2023-06-24T13:05:17;101948.44;;;21.72;55.94
50732;BME280;36700;50.488;2.544;2023-06-24T13:07:43;101936.69;;;21.72;56.16
50732;BME280;36700;50.488;2.544;2023-06-24T13:10:10;101937.50;;;21.72;56.32
50732;BME280;36700;50.488;2.544;2023-06-24T13:12:36;101934.19;;;21.70;56.07
50732;BME280;36700;50.488;2.544;2023-06-24T13:15:03;101935.84;;;21.71;56.25
50732;BME280;36700;50.488;2.544;2023-06-24T13:17:32;101929.56;;;21.71;56.21
50732;BME280;36700;50.488;2.544;2023-06-24T13:19:58;101933.13;;;21.71;56.42